sensor_id;sensor_type;location;lat;lon;timestamp;pressure;altitude;pressure_sealevel;temperature;humidity
19624;BME280;9959;49.798;9.928;2023-04-15T00:01:18;98726.06;;;5.14;100.00
19624;BME280;9959;49.798;9.928;2023-04-15T00:03:45;98731.41;;;5.14;100.00
19624;BME280;9959;49.798;9.928;2023-04-15T00:06:16;98721.50;;;5.07;100.00
19624;BME280;9959;49.798;9.928;2023-04-15T00:08:43;98727.28;;;5.11;100.00
19624;BME280;9959;49.798;9.928;2023-04-15T00:11:09;98719.28;;;5.11;100.00
19624;BME280;9959;49.798;9.928;2023-04-15T00:13:37;98725.00;;;5.08;100.00
19624;BME280;9959;49.798;9.928;2023-04-15T00:16:05;98726.28;;;5.19;100.00
19624;BME280;9959;49.798;9.928;2023-04-15T00:18:33;98720.69;;;5.07;100.00
19624;BME280;9959;49.798;9.928;2023-04-15T00:21:01;98718.84;;;5.07;100.00
19624;BME280;9959;49.798;9.928;2023-04-15T00:23:28;98717.97;;;5.00;100.00
19624;BME280;9959;49.798;9.928;2023-04-15T00:25:55;98718.44;;;5.10;100.00
19624;BME280;9959;49.798;9.928;2023-04-15T00:28:22;98715.16;;;5.08;100.00
19624;BME280;9959;49.798;9.928;2023-04-15T00:30:49;98713.50;;;5.07;100.00
19624;BME280;9959;49.798;9.928;2023-04-15T00:33:16;98705.03;;;4.97;100.00
19624;BME280;9959;49.798;9.928;2023-04-15T00:35:43;98712.88;;;5.05;100.00
19624;BME280;9959;49.798;9.928;2023-04-15T00:38:10;98704.28;;;5.10;100.00
19624;BME280;9959;49.798;9.928;2023-04-15T00:40:38;98698.75;;;5.12;100.00
19624;BME280;9959;49.798;9.928;2023-04-15T00:43:05;98703.25;;;5.11;100.00
19624;BME280;9959;49.798;9.928;2023-04-15T00:45:32;98701.38;;;5.05;100.00
19624;BME280;9959;49.798;9.928;2023-04-15T00:47:59;98707.34;;;5.07;100.00
19624;BME280;9959;49.798;9.928;2023-04-15T00:50:27;98703.03;;;5.06;100.00
19624;BME280;9959;49.798;9.928;2023-04-15T00:52:53;98701.19;;;5.06;100.00
19624;BME280;9959;49.798;9.928;2023-04-15T00:55:20;98703.69;;;5.15;100.00
19624;BME280;9959;49.798;9.928;2023-04-15T00:57:47;98707.19;;;5.15;100.00
19624;BME280;9959;49.798;9.928;2023-04-15T01:00:14;98696.28;;;5.10;100.00
19624;BME280;9959;49.798;9.928;2023-04-15T01:02:42;98701.59;;;5.10;100.00
19624;BME280;9959;49.798;9.928;2023-04-15T01:05:09;98708.97;;;5.01;100.00
19624;BME280;9959;49.798;9.928;2023-04-15T01:07:36;98709.75;;;4.95;100.00
19624;BME280;9959;49.798;9.928;2023-04-15T01:10:03;98701.53;;;4.90;100.00
19624;BME280;9959;49.798;9.928;2023-04-15T01:12:31;98707.69;;;4.97;100.00
19624;BME280;9959;49.798;9.928;2023-04-15T01:15:00;98700.94;;;5.01;100.00
19624;BME280;9959;49.798;9.928;2023-04-15T01:17:28;98703.00;;;4.99;100.00
19624;BME280;9959;49.798;9.928;2023-04-15T01:19:55;98699.91;;;4.96;100.00
19624;BME280;9959;49.798;9.928;2023-04-15T01:22:26;98703.81;;;5.00;100.00
19624;BME280;9959;49.798;9.928;2023-04-15T01:25:00;98695.78;;;4.93;100.00
19624;BME280;9959;49.798;9.928;2023-04-15T01:27:28;98703.38;;;4.96;100.00
19624;BME280;9959;49.798;9.928;2023-04-15T01:29:54;98706.91;;;5.03;100.00
19624;BME280;9959;49.798;9.928;2023-04-15T01:32:21;98698.13;;;5.09;100.00
19624;BME280;9959;49.798;9.928;2023-04-15T01:34:49;98694.78;;;5.01;100.00
19624;BME280;9959;49.798;9.928;2023-04-15T01:37:16;98699.06;;;4.95;100.00
19624;BME280;9959;49.798;9.928;2023-04-15T01:39:43;98692.28;;;4.93;100.00
19624;BME280;9959;49.798;9.928;2023-04-15T01:42:10;98701.16;;;5.00;100.00
19624;BME280;9959;49.798;9.928;2023-04-15T01:44:37;98694.56;;;4.96;100.00
19624;BME280;9959;49.798;9.928;2023-04-15T01:47:04;98687.16;;;4.91;100.00
19624;BME280;9959;49.798;9.928;2023-04-15T01:49:31;98691.69;;;4.97;100.00
19624;BME280;9959;49.798;9.928;2023-04-15T01:51:58;98689.66;;;4.99;100.00
19624;BME280;9959;49.798;9.928;2023-04-15T01:54:25;98689.66;;;4.99;100.00
19624;BME280;9959;49.798;9.928;2023-04-15T01:56:53;98685.13;;;5.00;100.00
19624;BME280;9959;49.798;9.928;2023-04-15T01:59:20;98690.50;;;5.06;100.00
19624;BME280;9959;49.798;9.928;2023-04-15T02:01:47;98685.56;;;5.03;100.00
19624;BME280;9959;49.798;9.928;2023-04-15T02:04:13;98691.28;;;5.00;100.00
19624;BME280;9959;49.798;9.928;2023-04-15T02:06:43;98692.72;;;4.96;100.00
19624;BME280;9959;49.798;9.928;2023-04-15T02:09:10;98688.84;;;5.05;100.00
19624;BME280;9959;49.798;9.928;2023-04-15T02:11:37;98692.53;;;5.04;100.00
19624;BME280;9959;49.798;9.928;2023-04-15T02:14:04;98682.50;;;5.06;100.00
19624;BME280;9959;49.798;9.928;2023-04-15T02:16:32;98681.69;;;5.13;100.00
19624;BME280;9959;49.798;9.928;2023-04-15T02:18:59;98681.69;;;5.13;100.00
19624;BME280;9959;49.798;9.928;2023-04-15T02:21:27;98683.34;;;5.14;100.00
19624;BME280;9959;49.798;9.928;2023-04-15T02:23:53;98681.31;;;5.16;100.00
19624;BME280;9959;49.798;9.928;2023-04-15T02:26:21;98681.69;;;5.13;100.00
19624;BME280;9959;49.798;9.928;2023-04-15T02:28:48;98672.84;;;5.05;100.00
19624;BME280;9959;49.798;9.928;2023-04-15T02:31:17;98671.97;;;4.98;100.00
19624;BME280;9959;49.798;9.928;2023-04-15T02:33:44;98677.09;;;4.93;100.00
19624;BME280;9959;49.798;9.928;2023-04-15T02:36:11;98678.94;;;4.86;100.00
19624;BME280;9959;49.798;9.928;2023-04-15T02:38:38;98681.41;;;4.94;100.00
19624;BME280;9959;49.798;9.928;2023-04-15T02:41:08;98676.25;;;4.86;100.00
19624;BME280;9959;49.798;9.928;2023-04-15T02:43:35;98670.53;;;4.89;100.00
19624;BME280;9959;49.798;9.928;2023-04-15T02:46:03;98669.91;;;4.87;100.00
19624;BME280;9959;49.798;9.928;2023-04-15T02:48:30;98666.22;;;4.88;100.00
19624;BME280;9959;49.798;9.928;2023-04-15T02:51:11;98666.22;;;4.88;100.00
19624;BME280;9959;49.798;9.928;2023-04-15T02:53:38;98663.72;;;4.80;100.00
19624;BME280;9959;49.798;9.928;2023-04-15T02:56:04;98668.84;;;4.82;100.00
19624;BME280;9959;49.798;9.928;2023-04-15T02:58:32;98664.56;;;4.87;100.00
19624;BME280;9959;49.798;9.928;2023-04-15T03:01:00;98669.50;;;4.90;100.00
19624;BME280;9959;49.798;9.928;2023-04-15T03:03:27;98665.59;;;4.93;100.00
19624;BME280;9959;49.798;9.928;2023-04-15T03:05:54;98670.34;;;4.97;100.00
19624;BME280;9959;49.798;9.928;2023-04-15T03:08:21;98668.88;;;4.95;100.00
19624;BME280;9959;49.798;9.928;2023-04-15T03:10:48;98665.59;;;4.93;100.00
19624;BME280;9959;49.798;9.928;2023-04-15T03:13:15;98667.25;;;4.87;100.00
19624;BME280;9959;49.798;9.928;2023-04-15T03:15:41;98662.13;;;4.92;100.00
19624;BME280;9959;49.798;9.928;2023-04-15T03:18:08;98664.16;;;4.90;100.00
19624;BME280;9959;49.798;9.928;2023-04-15T03:20:35;98665.81;;;4.91;100.00
19624;BME280;9959;49.798;9.928;2023-04-15T03:23:02;98666.66;;;4.98;100.00
19624;BME280;9959;49.798;9.928;2023-04-15T03:25:29;98657.22;;;5.02;100.00
19624;BME280;9959;49.798;9.928;2023-04-15T03:27:56;98662.97;;;4.99;100.00
19624;BME280;9959;49.798;9.928;2023-04-15T03:30:23;98663.34;;;4.96;100.00
19624;BME280;9959;49.798;9.928;2023-04-15T03:32:50;98661.31;;;4.92;100.00
19624;BME280;9959;49.798;9.928;2023-04-15T03:35:17;98668.06;;;4.94;100.00
19624;BME280;9959;49.798;9.928;2023-04-15T03:37:44;98662.13;;;4.92;100.00
19624;BME280;9959;49.798;9.928;2023-04-15T03:40:11;98665.19;;;4.89;100.00
19624;BME280;9959;49.798;9.928;2023-04-15T03:42:38;98661.47;;;4.84;100.00
19624;BME280;9959;49.798;9.928;2023-04-15T03:45:05;98661.44;;;4.77;100.00
19624;BME280;9959;49.798;9.928;2023-04-15T03:47:33;98665.75;;;4.78;100.00
19624;BME280;9959;49.798;9.928;2023-04-15T03:50:00;98667.41;;;4.79;100.00
19624;BME280;9959;49.798;9.928;2023-04-15T03:52:27;98671.94;;;4.85;100.00
19624;BME280;9959;49.798;9.928;2023-04-15T03:54:54;98668.66;;;4.83;100.00
19624;BME280;9959;49.798;9.928;2023-04-15T03:57:21;98667.41;;;4.79;100.00
19624;BME280;9959;49.798;9.928;2023-04-15T03:59:48;98664.97;;;4.84;100.00
19624;BME280;9959;49.798;9.928;2023-04-15T04:02:15;98671.13;;;4.85;100.00
19624;BME280;9959;49.798;9.928;2023-04-15T04:04:42;98669.28;;;4.85;100.00
19624;BME280;9959;49.798;9.928;2023-04-15T04:07:16;98667.41;;;4.79;100.00
19624;BME280;9959;49.798;9.928;2023-04-15T04:09:43;98669.44;;;4.77;100.00
19624;BME280;9959;49.798;9.928;2023-04-15T04:12:12;98666.75;;;4.70;100.00
19624;BME280;9959;49.798;9.928;2023-04-15T04:14:39;98673.09;;;4.69;100.00
19624;BME280;9959;49.798;9.928;2023-04-15T04:17:06;98668.97;;;4.67;100.00
19624;BME280;9959;49.798;9.928;2023-04-15T04:19:33;98671.88;;;4.72;100.00
19624;BME280;9959;49.798;9.928;2023-04-15T04:22:00;98678.47;;;4.76;100.00
19624;BME280;9959;49.798;9.928;2023-04-15T04:24:27;98674.16;;;4.75;100.00
19624;BME280;9959;49.798;9.928;2023-04-15T04:26:54;98686.22;;;4.71;100.00
19624;BME280;9959;49.798;9.928;2023-04-15T04:29:22;98682.16;;;4.75;100.00
19624;BME280;9959;49.798;9.928;2023-04-15T04:31:49;98682.53;;;4.72;100.00
19624;BME280;9959;49.798;9.928;2023-04-15T04:34:16;98686.88;;;4.73;100.00
19624;BME280;9959;49.798;9.928;2023-04-15T04:36:43;98681.91;;;4.70;100.00
19624;BME280;9959;49.798;9.928;2023-04-15T04:39:10;98678.03;;;4.72;100.00
19624;BME280;9959;49.798;9.928;2023-04-15T04:41:37;98684.16;;;4.66;100.00
19624;BME280;9959;49.798;9.928;2023-04-15T04:44:04;98681.28;;;4.61;100.00
19624;BME280;9959;49.798;9.928;2023-04-15T04:46:30;98683.72;;;4.56;100.00
19624;BME280;9959;49.798;9.928;2023-04-15T04:48:57;98685.78;;;4.61;100.00
19624;BME280;9959;49.798;9.928;2023-04-15T04:51:24;98686.19;;;4.58;100.00
19624;BME280;9959;49.798;9.928;2023-04-15T04:53:51;98681.28;;;4.68;100.00
19624;BME280;9959;49.798;9.928;2023-04-15T04:56:19;98684.59;;;4.70;100.00
19624;BME280;9959;49.798;9.928;2023-04-15T04:58:46;98674.78;;;4.77;100.00
19624;BME280;9959;49.798;9.928;2023-04-15T05:01:13;98677.66;;;4.75;100.00
19624;BME280;9959;49.798;9.928;2023-04-15T05:03:40;98678.94;;;4.93;100.00
19624;BME280;9959;49.798;9.928;2023-04-15T05:06:07;98671.34;;;4.90;100.00
19624;BME280;9959;49.798;9.928;2023-04-15T05:08:34;98677.31;;;4.98;100.00
19624;BME280;9959;49.798;9.928;2023-04-15T05:11:03;98677.34;;;5.05;100.00
19624;BME280;9959;49.798;9.928;2023-04-15T05:13:30;98671.59;;;5.01;99.95
19624;BME280;9959;49.798;9.928;2023-04-15T05:15:57;98680.22;;;5.03;99.56
19624;BME280;9959;49.798;9.928;2023-04-15T05:18:24;98675.72;;;5.10;99.66
19624;BME280;9959;49.798;9.928;2023-04-15T05:20:51;98676.78;;;5.16;99.13
19624;BME280;9959;49.798;9.928;2023-04-15T05:23:18;98677.59;;;5.23;98.46
19624;BME280;9959;49.798;9.928;2023-04-15T05:25:45;98672.88;;;5.25;98.61
19624;BME280;9959;49.798;9.928;2023-04-15T05:28:11;98671.25;;;5.31;98.42
19624;BME280;9959;49.798;9.928;2023-04-15T05:30:39;98673.16;;;5.50;97.04
19624;BME280;9959;49.798;9.928;2023-04-15T05:33:06;98673.97;;;5.57;96.34
19624;BME280;9959;49.798;9.928;2023-04-15T05:35:32;98682.81;;;5.58;95.81
19624;BME280;9959;49.798;9.928;2023-04-15T05:37:59;98679.56;;;5.69;95.16
19624;BME280;9959;49.798;9.928;2023-04-15T05:40:26;98686.13;;;5.79;94.69
19624;BME280;9959;49.798;9.928;2023-04-15T05:42:54;98678.38;;;5.98;93.61
19624;BME280;9959;49.798;9.928;2023-04-15T05:45:21;98679.59;;;5.95;93.45
19624;BME280;9959;49.798;9.928;2023-04-15T05:47:48;98684.34;;;6.00;93.17
19624;BME280;9959;49.798;9.928;2023-04-15T05:50:20;98695.63;;;6.02;92.91
19624;BME280;9959;49.798;9.928;2023-04-15T05:52:46;98694.41;;;6.11;92.01
19624;BME280;9959;49.798;9.928;2023-04-15T05:55:13;98689.06;;;6.24;90.45
19624;BME280;9959;49.798;9.928;2023-04-15T05:57:40;98692.97;;;6.15;91.26
19624;BME280;9959;49.798;9.928;2023-04-15T06:00:07;98692.53;;;6.18;91.54
19624;BME280;9959;49.798;9.928;2023-04-15T06:02:35;98686.59;;;6.16;91.02
19624;BME280;9959;49.798;9.928;2023-04-15T06:05:02;98691.09;;;6.09;91.86
19624;BME280;9959;49.798;9.928;2023-04-15T06:07:29;98687.41;;;6.10;91.60
19624;BME280;9959;49.798;9.928;2023-04-15T06:09:56;98686.56;;;6.29;91.17
19624;BME280;9959;49.798;9.928;2023-04-15T06:12:23;98687.59;;;6.28;90.62
19624;BME280;9959;49.798;9.928;2023-04-15T06:14:49;98683.25;;;6.40;90.05
19624;BME280;9959;49.798;9.928;2023-04-15T06:17:16;98689.41;;;6.48;89.97
19624;BME280;9959;49.798;9.928;2023-04-15T06:19:45;98694.78;;;6.48;89.86
19624;BME280;9959;49.798;9.928;2023-04-15T06:22:12;98685.66;;;6.62;89.79
19624;BME280;9959;49.798;9.928;2023-04-15T06:24:39;98681.75;;;6.71;88.70
19624;BME280;9959;49.798;9.928;2023-04-15T06:27:06;98685.84;;;6.80;88.26
19624;BME280;9959;49.798;9.928;2023-04-15T06:29:33;98687.03;;;6.91;88.30
19624;BME280;9959;49.798;9.928;2023-04-15T06:32:00;98689.44;;;7.05;87.23
19624;BME280;9959;49.798;9.928;2023-04-15T06:34:27;98689.56;;;7.24;86.57
19624;BME280;9959;49.798;9.928;2023-04-15T06:36:54;98681.56;;;7.17;86.09
19624;BME280;9959;49.798;9.928;2023-04-15T06:39:20;98695.34;;;7.21;85.94
19624;BME280;9959;49.798;9.928;2023-04-15T06:41:47;98694.50;;;7.27;86.02
19624;BME280;9959;49.798;9.928;2023-04-15T06:44:14;98697.38;;;7.25;85.71
19624;BME280;9959;49.798;9.928;2023-04-15T06:46:41;98699.69;;;7.60;84.12
19624;BME280;9959;49.798;9.928;2023-04-15T06:49:08;98702.22;;;7.79;83.40
19624;BME280;9959;49.798;9.928;2023-04-15T06:51:35;98706.94;;;8.09;82.14
19624;BME280;9959;49.798;9.928;2023-04-15T06:54:03;98698.94;;;8.02;82.01
19624;BME280;9959;49.798;9.928;2023-04-15T06:56:32;98702.28;;;7.98;82.21
19624;BME280;9959;49.798;9.928;2023-04-15T06:58:59;98698.69;;;8.10;82.11
19624;BME280;9959;49.798;9.928;2023-04-15T07:01:26;98698.19;;;8.20;81.26
19624;BME280;9959;49.798;9.928;2023-04-15T07:03:53;98704.81;;;7.93;82.13
19624;BME280;9959;49.798;9.928;2023-04-15T07:06:20;98703.94;;;8.48;80.49
19624;BME280;9959;49.798;9.928;2023-04-15T07:08:47;98706.63;;;8.48;80.31
19624;BME280;9959;49.798;9.928;2023-04-15T07:11:14;98702.16;;;8.42;80.25
19624;BME280;9959;49.798;9.928;2023-04-15T07:13:41;98702.16;;;8.42;80.13
19624;BME280;9959;49.798;9.928;2023-04-15T07:16:08;98707.47;;;8.86;78.96
19624;BME280;9959;49.798;9.928;2023-04-15T07:18:34;98711.50;;;8.95;77.35
19624;BME280;9959;49.798;9.928;2023-04-15T07:21:01;98705.00;;;9.21;76.25
19624;BME280;9959;49.798;9.928;2023-04-15T07:23:28;98707.84;;;9.07;76.94
19624;BME280;9959;49.798;9.928;2023-04-15T07:25:55;98713.97;;;9.14;77.02
19624;BME280;9959;49.798;9.928;2023-04-15T07:28:23;98707.72;;;9.50;75.25
19624;BME280;9959;49.798;9.928;2023-04-15T07:30:52;98709.47;;;9.27;75.64
19624;BME280;9959;49.798;9.928;2023-04-15T07:33:19;98710.03;;;9.47;74.23
19624;BME280;9959;49.798;9.928;2023-04-15T07:35:47;98710.97;;;9.82;72.43
19624;BME280;9959;49.798;9.928;2023-04-15T07:38:13;98710.75;;;9.96;71.96
19624;BME280;9959;49.798;9.928;2023-04-15T07:40:40;98708.63;;;9.74;72.79
19624;BME280;9959;49.798;9.928;2023-04-15T07:43:07;98708.19;;;9.59;73.03
19624;BME280;9959;49.798;9.928;2023-04-15T07:45:35;98696.22;;;9.73;72.63
19624;BME280;9959;49.798;9.928;2023-04-15T07:48:02;98707.34;;;9.47;72.95
19624;BME280;9959;49.798;9.928;2023-04-15T07:50:29;98711.34;;;9.98;70.78
19624;BME280;9959;49.798;9.928;2023-04-15T07:52:56;98712.00;;;10.23;69.48
19624;BME280;9959;49.798;9.928;2023-04-15T07:55:23;98709.44;;;10.28;69.08
19624;BME280;9959;49.798;9.928;2023-04-15T07:57:52;98707.94;;;10.32;68.73
19624;BME280;9959;49.798;9.928;2023-04-15T08:00:19;98707.56;;;9.87;69.36
19624;BME280;9959;49.798;9.928;2023-04-15T08:02:46;98707.00;;;10.50;67.54
19624;BME280;9959;49.798;9.928;2023-04-15T08:05:14;98711.56;;;10.73;67.08
19624;BME280;9959;49.798;9.928;2023-04-15T08:07:41;98712.50;;;10.43;67.79
19624;BME280;9959;49.798;9.928;2023-04-15T08:10:08;98712.97;;;10.64;66.69
19624;BME280;9959;49.798;9.928;2023-04-15T08:12:35;98712.25;;;10.22;67.77
19624;BME280;9959;49.798;9.928;2023-04-15T08:15:03;98718.28;;;10.17;67.48
19624;BME280;9959;49.798;9.928;2023-04-15T08:17:29;98712.03;;;10.46;66.57
19624;BME280;9959;49.798;9.928;2023-04-15T08:19:56;98716.13;;;10.84;65.83
19624;BME280;9959;49.798;9.928;2023-04-15T08:22:23;98720.25;;;10.63;65.87
19624;BME280;9959;49.798;9.928;2023-04-15T08:24:50;98716.66;;;11.21;63.64
19624;BME280;9959;49.798;9.928;2023-04-15T08:27:17;98727.72;;;10.61;64.41
19624;BME280;9959;49.798;9.928;2023-04-15T08:29:44;98731.97;;;10.04;65.29
19624;BME280;9959;49.798;9.928;2023-04-15T08:32:11;98724.66;;;10.69;64.02
19624;BME280;9959;49.798;9.928;2023-04-15T08:34:38;98726.16;;;11.00;63.11
19624;BME280;9959;49.798;9.928;2023-04-15T08:37:05;98722.34;;;11.25;62.21
19624;BME280;9959;49.798;9.928;2023-04-15T08:39:32;98728.75;;;10.95;62.07
19624;BME280;9959;49.798;9.928;2023-04-15T08:42:00;98725.06;;;11.25;62.04
19624;BME280;9959;49.798;9.928;2023-04-15T08:44:33;98733.44;;;11.00;62.10
19624;BME280;9959;49.798;9.928;2023-04-15T08:47:01;98737.31;;;10.69;64.18
19624;BME280;9959;49.798;9.928;2023-04-15T08:49:29;98744.78;;;10.20;62.62
19624;BME280;9959;49.798;9.928;2023-04-15T08:51:59;98742.84;;;10.85;61.53
19624;BME280;9959;49.798;9.928;2023-04-15T08:54:27;98749.59;;;11.00;61.38
19624;BME280;9959;49.798;9.928;2023-04-15T08:56:57;98755.69;;;11.18;60.40
19624;BME280;9959;49.798;9.928;2023-04-15T08:59:24;98748.72;;;11.23;60.22
19624;BME280;9959;49.798;9.928;2023-04-15T09:01:52;98746.50;;;11.71;58.24
19624;BME280;9959;49.798;9.928;2023-04-15T09:04:20;98744.50;;;11.38;58.78
19624;BME280;9959;49.798;9.928;2023-04-15T09:06:47;98751.97;;;11.48;58.28
19624;BME280;9959;49.798;9.928;2023-04-15T09:09:14;98747.59;;;11.18;59.81
19624;BME280;9959;49.798;9.928;2023-04-15T09:11:41;98749.31;;;11.25;60.11
19624;BME280;9959;49.798;9.928;2023-04-15T09:14:08;98742.72;;;10.92;61.71
19624;BME280;9959;49.798;9.928;2023-04-15T09:19:24;98741.31;;;10.78;61.09
19624;BME280;9959;49.798;9.928;2023-04-15T09:21:53;98744.81;;;10.90;60.87
19624;BME280;9959;49.798;9.928;2023-04-15T09:24:24;98750.78;;;10.80;62.82
19624;BME280;9959;49.798;9.928;2023-04-15T09:26:53;98741.66;;;10.46;65.08
19624;BME280;9959;49.798;9.928;2023-04-15T09:29:23;98743.84;;;10.26;65.00
19624;BME280;9959;49.798;9.928;2023-04-15T09:31:52;98748.91;;;10.46;66.59
19624;BME280;9959;49.798;9.928;2023-04-15T09:34:19;98743.53;;;10.46;67.13
19624;BME280;9959;49.798;9.928;2023-04-15T09:39:16;98766.75;;;9.87;70.09
19624;BME280;9959;49.798;9.928;2023-04-15T09:41:43;98763.31;;;9.68;72.32
19624;BME280;9959;49.798;9.928;2023-04-15T09:44:39;98774.59;;;9.29;74.58
19624;BME280;9959;49.798;9.928;2023-04-15T09:47:06;98780.53;;;9.12;75.30
19624;BME280;9959;49.798;9.928;2023-04-15T09:49:33;98781.72;;;9.53;75.96
19624;BME280;9959;49.798;9.928;2023-04-15T09:52:01;98783.50;;;9.04;75.62
19624;BME280;9959;49.798;9.928;2023-04-15T09:54:35;98780.81;;;9.41;73.65
19624;BME280;9959;49.798;9.928;2023-04-15T09:57:07;98775.03;;;9.26;73.09
19624;BME280;9959;49.798;9.928;2023-04-15T09:59:35;98776.06;;;9.73;72.87
19624;BME280;9959;49.798;9.928;2023-04-15T10:02:03;98770.81;;;9.48;73.47
19624;BME280;9959;49.798;9.928;2023-04-15T10:04:35;98771.47;;;9.92;73.90
19624;BME280;9959;49.798;9.928;2023-04-15T10:07:05;98765.09;;;9.74;74.82
19624;BME280;9959;49.798;9.928;2023-04-15T10:09:37;98775.63;;;9.76;72.33
19624;BME280;9959;49.798;9.928;2023-04-15T10:12:05;98771.06;;;10.60;73.17
19624;BME280;9959;49.798;9.928;2023-04-15T10:14:33;98768.34;;;10.36;72.88
19624;BME280;9959;49.798;9.928;2023-04-15T10:17:03;98762.97;;;10.06;70.89
19624;BME280;9959;49.798;9.928;2023-04-15T10:19:32;98756.38;;;9.91;68.82
19624;BME280;9959;49.798;9.928;2023-04-15T10:22:00;98775.78;;;9.63;67.87
19624;BME280;9959;49.798;9.928;2023-04-15T10:24:27;98765.56;;;10.13;67.46
19624;BME280;9959;49.798;9.928;2023-04-15T10:26:58;98770.94;;;10.13;68.93
19624;BME280;9959;49.798;9.928;2023-04-15T10:29:25;98780.09;;;10.12;67.97
19624;BME280;9959;49.798;9.928;2023-04-15T10:31:55;98771.41;;;10.51;65.96
19624;BME280;9959;49.798;9.928;2023-04-15T10:34:23;98776.75;;;9.68;68.94
19624;BME280;9959;49.798;9.928;2023-04-15T10:36:50;98781.19;;;9.93;68.04
19624;BME280;9959;49.798;9.928;2023-04-15T10:44:37;98782.81;;;9.64;69.68
19624;BME280;9959;49.798;9.928;2023-04-15T10:47:13;98786.53;;;9.81;70.41
19624;BME280;9959;49.798;9.928;2023-04-15T10:49:49;98779.81;;;10.02;68.80
19624;BME280;9959;49.798;9.928;2023-04-15T10:52:17;98788.19;;;9.94;68.95
19624;BME280;9959;49.798;9.928;2023-04-15T10:54:48;98785.94;;;9.79;69.96
19624;BME280;9959;49.798;9.928;2023-04-15T10:57:21;98786.63;;;9.74;70.27
19624;BME280;9959;49.798;9.928;2023-04-15T11:00:00;98791.66;;;9.53;70.19
19624;BME280;9959;49.798;9.928;2023-04-15T11:02:58;98796.59;;;9.85;68.79
19624;BME280;9959;49.798;9.928;2023-04-15T11:08:11;98821.50;;;9.81;69.08
19624;BME280;9959;49.798;9.928;2023-04-15T11:15:41;98816.88;;;9.15;72.53
19624;BME280;9959;49.798;9.928;2023-04-15T11:18:13;98812.28;;;9.22;76.23
19624;BME280;9959;49.798;9.928;2023-04-15T11:23:14;98827.84;;;8.95;82.82
19624;BME280;9959;49.798;9.928;2023-04-15T11:25:42;98819.59;;;8.72;80.94
19624;BME280;9959;49.798;9.928;2023-04-15T11:28:10;98829.28;;;8.73;83.90
19624;BME280;9959;49.798;9.928;2023-04-15T11:30:38;98833.47;;;8.69;83.38
19624;BME280;9959;49.798;9.928;2023-04-15T11:33:07;98830.09;;;8.48;82.78
19624;BME280;9959;49.798;9.928;2023-04-15T11:35:34;98839.91;;;8.61;83.33
19624;BME280;9959;49.798;9.928;2023-04-15T11:38:02;98840.47;;;8.70;83.83
19624;BME280;9959;49.798;9.928;2023-04-15T11:40:30;98844.13;;;8.75;83.29
19624;BME280;9959;49.798;9.928;2023-04-15T11:43:09;98843.75;;;8.97;84.17
19624;BME280;9959;49.798;9.928;2023-04-15T11:45:37;98846.75;;;8.82;83.29
19624;BME280;9959;49.798;9.928;2023-04-15T11:48:10;98845.31;;;8.79;84.17
19624;BME280;9959;49.798;9.928;2023-04-15T11:50:39;98845.06;;;8.63;81.17
19624;BME280;9959;49.798;9.928;2023-04-15T11:53:08;98838.91;;;8.80;82.12
19624;BME280;9959;49.798;9.928;2023-04-15T11:55:49;98852.19;;;9.00;81.86
19624;BME280;9959;49.798;9.928;2023-04-15T12:00:51;98849.38;;;9.50;83.00
19624;BME280;9959;49.798;9.928;2023-04-15T12:03:30;98859.91;;;8.90;83.00
19624;BME280;9959;49.798;9.928;2023-04-15T12:14:07;98867.25;;;9.01;83.50
19624;BME280;9959;49.798;9.928;2023-04-15T12:16:38;98866.09;;;9.34;83.36
19624;BME280;9959;49.798;9.928;2023-04-15T12:19:42;98882.66;;;9.12;83.56
19624;BME280;9959;49.798;9.928;2023-04-15T12:22:12;98885.16;;;9.07;83.25
19624;BME280;9959;49.798;9.928;2023-04-15T12:24:42;98888.59;;;8.96;83.93
19624;BME280;9959;49.798;9.928;2023-04-15T12:27:15;98886.94;;;8.95;83.15
19624;BME280;9959;49.798;9.928;2023-04-15T12:29:42;98887.81;;;8.89;84.62
19624;BME280;9959;49.798;9.928;2023-04-15T12:32:14;98891.78;;;9.05;86.28
19624;BME280;9959;49.798;9.928;2023-04-15T12:34:43;98894.06;;;8.83;85.72
19624;BME280;9959;49.798;9.928;2023-04-15T12:37:11;98898.28;;;8.97;86.40
19624;BME280;9959;49.798;9.928;2023-04-15T12:39:42;98904.72;;;8.96;86.34
19624;BME280;9959;49.798;9.928;2023-04-15T12:42:10;98898.13;;;8.92;86.89
19624;BME280;9959;49.798;9.928;2023-04-15T12:44:38;98902.13;;;8.52;85.82
19624;BME280;9959;49.798;9.928;2023-04-15T12:47:06;98903.28;;;8.37;87.21
19624;BME280;9959;49.798;9.928;2023-04-15T12:49:33;98915.13;;;8.55;88.30
19624;BME280;9959;49.798;9.928;2023-04-15T12:52:01;98913.47;;;8.54;91.00
19624;BME280;9959;49.798;9.928;2023-04-15T12:54:29;98911.75;;;8.34;91.25
19624;BME280;9959;49.798;9.928;2023-04-15T12:56:57;98913.47;;;8.54;92.40
19624;BME280;9959;49.798;9.928;2023-04-15T12:59:25;98909.66;;;8.36;92.94
19624;BME280;9959;49.798;9.928;2023-04-15T13:01:52;98915.97;;;8.48;94.41
19624;BME280;9959;49.798;9.928;2023-04-15T13:04:20;98922.84;;;8.44;94.87
19624;BME280;9959;49.798;9.928;2023-04-15T13:06:47;98915.00;;;8.43;94.09
19624;BME280;9959;49.798;9.928;2023-04-15T13:09:14;98919.88;;;8.53;96.82
19624;BME280;9959;49.798;9.928;2023-04-15T13:11:41;98922.84;;;8.44;94.48
19624;BME280;9959;49.798;9.928;2023-04-15T13:14:09;98926.19;;;8.33;93.66
19624;BME280;9959;49.798;9.928;2023-04-15T13:16:38;98928.97;;;8.52;95.30
19624;BME280;9959;49.798;9.928;2023-04-15T13:19:06;98924.63;;;8.82;96.73
19624;BME280;9959;49.798;9.928;2023-04-15T13:21:33;98925.38;;;9.21;93.81
19624;BME280;9959;49.798;9.928;2023-04-15T13:24:02;98922.53;;;9.34;91.42
19624;BME280;9959;49.798;9.928;2023-04-15T13:26:29;98917.69;;;10.15;90.18
19624;BME280;9959;49.798;9.928;2023-04-15T13:28:58;98919.56;;;10.15;88.61
19624;BME280;9959;49.798;9.928;2023-04-15T13:31:25;98924.50;;;10.36;87.48
19624;BME280;9959;49.798;9.928;2023-04-15T13:33:53;98924.69;;;10.05;86.76
19624;BME280;9959;49.798;9.928;2023-04-15T13:36:20;98927.53;;;9.30;88.41
19624;BME280;9959;49.798;9.928;2023-04-15T13:38:47;98937.69;;;10.08;85.36
19624;BME280;9959;49.798;9.928;2023-04-15T13:41:16;98939.47;;;9.96;86.20
19624;BME280;9959;49.798;9.928;2023-04-15T13:43:43;98957.91;;;9.56;86.33
19624;BME280;9959;49.798;9.928;2023-04-15T13:46:10;98957.66;;;9.39;87.46
19624;BME280;9959;49.798;9.928;2023-04-15T13:48:37;98954.53;;;9.17;88.93
19624;BME280;9959;49.798;9.928;2023-04-15T13:51:04;98962.00;;;8.90;89.81